sensor_id;sensor_type;location;lat;lon;timestamp;P1;durP1;ratioP1;P2;durP2;ratioP2
50569;SDS011;36525;49.398;7.614;2023-05-19T00:00:57;7.50;;;2.13;;
50569;SDS011;36525;49.398;7.614;2023-05-19T00:03:26;9.60;;;2.63;;
50569;SDS011;36525;49.398;7.614;2023-05-19T00:05:53;8.98;;;2.15;;
50569;SDS011;36525;49.398;7.614;2023-05-19T00:08:22;10.88;;;2.05;;
50569;SDS011;36525;49.398;7.614;2023-05-19T00:10:50;9.00;;;2.00;;
50569;SDS011;36525;49.398;7.614;2023-05-19T00:13:18;7.03;;;2.08;;
50569;SDS011;36525;49.398;7.614;2023-05-19T00:15:45;8.93;;;2.40;;
50569;SDS011;36525;49.398;7.614;2023-05-19T00:18:13;6.75;;;2.08;;
50569;SDS011;36525;49.398;7.614;2023-05-19T00:20:42;4.25;;;1.63;;
50569;SDS011;36525;49.398;7.614;2023-05-19T00:23:09;13.45;;;2.17;;
50569;SDS011;36525;49.398;7.614;2023-05-19T00:25:36;5.88;;;2.35;;
50569;SDS011;36525;49.398;7.614;2023-05-19T00:28:04;5.05;;;2.17;;
50569;SDS011;36525;49.398;7.614;2023-05-19T00:30:32;9.55;;;2.55;;
50569;SDS011;36525;49.398;7.614;2023-05-19T00:32:59;8.55;;;2.75;;
50569;SDS011;36525;49.398;7.614;2023-05-19T00:35:26;9.18;;;2.50;;
50569;SDS011;36525;49.398;7.614;2023-05-19T00:37:53;5.20;;;2.03;;
50569;SDS011;36525;49.398;7.614;2023-05-19T00:40:20;13.68;;;2.10;;
50569;SDS011;36525;49.398;7.614;2023-05-19T00:42:49;5.35;;;1.92;;
50569;SDS011;36525;49.398;7.614;2023-05-19T00:45:16;8.70;;;2.50;;
50569;SDS011;36525;49.398;7.614;2023-05-19T00:47:43;7.30;;;1.90;;
50569;SDS011;36525;49.398;7.614;2023-05-19T00:50:10;10.15;;;2.45;;
50569;SDS011;36525;49.398;7.614;2023-05-19T00:52:37;7.78;;;2.28;;
50569;SDS011;36525;49.398;7.614;2023-05-19T00:55:05;7.55;;;1.92;;
50569;SDS011;36525;49.398;7.614;2023-05-19T00:57:34;9.15;;;2.38;;
50569;SDS011;36525;49.398;7.614;2023-05-19T01:00:02;4.18;;;1.90;;
50569;SDS011;36525;49.398;7.614;2023-05-19T01:02:30;6.43;;;2.22;;
50569;SDS011;36525;49.398;7.614;2023-05-19T01:04:58;7.00;;;1.83;;
50569;SDS011;36525;49.398;7.614;2023-05-19T01:07:26;8.18;;;2.20;;
50569;SDS011;36525;49.398;7.614;2023-05-19T01:09:53;8.82;;;2.25;;
50569;SDS011;36525;49.398;7.614;2023-05-19T01:12:21;10.35;;;2.42;;
50569;SDS011;36525;49.398;7.614;2023-05-19T01:14:53;9.07;;;2.63;;
50569;SDS011;36525;49.398;7.614;2023-05-19T01:25:29;6.97;;;2.17;;
50569;SDS011;36525;49.398;7.614;2023-05-19T01:31:42;4.85;;;1.85;;
50569;SDS011;36525;49.398;7.614;2023-05-19T01:34:13;12.30;;;2.60;;
50569;SDS011;36525;49.398;7.614;2023-05-19T01:36:42;8.00;;;1.70;;
50569;SDS011;36525;49.398;7.614;2023-05-19T01:39:14;9.80;;;2.20;;
50569;SDS011;36525;49.398;7.614;2023-05-19T01:41:41;8.40;;;1.77;;
50569;SDS011;36525;49.398;7.614;2023-05-19T01:44:11;11.02;;;2.08;;
50569;SDS011;36525;49.398;7.614;2023-05-19T01:46:38;7.78;;;1.98;;
50569;SDS011;36525;49.398;7.614;2023-05-19T01:49:06;6.22;;;1.92;;
50569;SDS011;36525;49.398;7.614;2023-05-19T01:51:34;5.07;;;1.95;;
50569;SDS011;36525;49.398;7.614;2023-05-19T01:54:01;9.07;;;2.30;;
50569;SDS011;36525;49.398;7.614;2023-05-19T01:56:32;5.47;;;1.85;;
50569;SDS011;36525;49.398;7.614;2023-05-19T01:59:33;8.40;;;1.85;;
50569;SDS011;36525;49.398;7.614;2023-05-19T02:02:25;8.70;;;2.35;;
50569;SDS011;36525;49.398;7.614;2023-05-19T02:05:22;7.05;;;1.80;;
50569;SDS011;36525;49.398;7.614;2023-05-19T02:10:40;9.23;;;2.92;;
50569;SDS011;36525;49.398;7.614;2023-05-19T02:13:12;5.63;;;2.00;;
50569;SDS011;36525;49.398;7.614;2023-05-19T02:15:41;4.07;;;1.75;;
50569;SDS011;36525;49.398;7.614;2023-05-19T02:18:09;9.00;;;2.40;;
50569;SDS011;36525;49.398;7.614;2023-05-19T02:20:38;6.85;;;1.83;;
50569;SDS011;36525;49.398;7.614;2023-05-19T02:23:06;6.30;;;1.83;;
50569;SDS011;36525;49.398;7.614;2023-05-19T02:25:33;6.68;;;1.88;;
50569;SDS011;36525;49.398;7.614;2023-05-19T02:28:00;6.93;;;1.85;;
50569;SDS011;36525;49.398;7.614;2023-05-19T02:30:27;7.07;;;2.45;;
50569;SDS011;36525;49.398;7.614;2023-05-19T02:32:57;6.57;;;1.73;;
50569;SDS011;36525;49.398;7.614;2023-05-19T02:35:24;6.70;;;1.88;;
50569;SDS011;36525;49.398;7.614;2023-05-19T02:37:52;8.05;;;1.88;;
50569;SDS011;36525;49.398;7.614;2023-05-19T02:40:19;8.73;;;1.88;;
50569;SDS011;36525;49.398;7.614;2023-05-19T02:43:04;8.10;;;1.88;;
50569;SDS011;36525;49.398;7.614;2023-05-19T02:45:32;8.63;;;2.10;;
50569;SDS011;36525;49.398;7.614;2023-05-19T02:47:59;4.93;;;1.50;;
50569;SDS011;36525;49.398;7.614;2023-05-19T02:50:26;9.73;;;2.40;;
50569;SDS011;36525;49.398;7.614;2023-05-19T02:52:53;4.78;;;1.77;;
50569;SDS011;36525;49.398;7.614;2023-05-19T02:55:20;9.48;;;2.00;;
50569;SDS011;36525;49.398;7.614;2023-05-19T02:57:47;5.50;;;1.50;;
50569;SDS011;36525;49.398;7.614;2023-05-19T03:00:14;6.32;;;2.10;;
50569;SDS011;36525;49.398;7.614;2023-05-19T03:02:41;6.85;;;1.95;;
50569;SDS011;36525;49.398;7.614;2023-05-19T03:05:09;5.85;;;1.90;;
50569;SDS011;36525;49.398;7.614;2023-05-19T03:07:36;7.53;;;2.33;;
50569;SDS011;36525;49.398;7.614;2023-05-19T03:10:03;5.40;;;1.52;;
50569;SDS011;36525;49.398;7.614;2023-05-19T03:12:34;6.28;;;1.70;;
50569;SDS011;36525;49.398;7.614;2023-05-19T03:15:01;4.45;;;1.48;;
50569;SDS011;36525;49.398;7.614;2023-05-19T03:17:29;6.63;;;1.50;;
50569;SDS011;36525;49.398;7.614;2023-05-19T03:19:59;8.18;;;1.58;;
50569;SDS011;36525;49.398;7.614;2023-05-19T03:22:26;8.35;;;2.58;;
50569;SDS011;36525;49.398;7.614;2023-05-19T03:24:53;7.95;;;2.78;;
50569;SDS011;36525;49.398;7.614;2023-05-19T03:27:21;10.23;;;2.05;;
50569;SDS011;36525;49.398;7.614;2023-05-19T03:29:48;13.88;;;2.53;;
50569;SDS011;36525;49.398;7.614;2023-05-19T03:32:16;9.40;;;2.15;;
50569;SDS011;36525;49.398;7.614;2023-05-19T03:34:43;8.02;;;1.75;;
50569;SDS011;36525;49.398;7.614;2023-05-19T03:37:10;7.35;;;1.67;;
50569;SDS011;36525;49.398;7.614;2023-05-19T03:39:38;6.40;;;1.80;;
50569;SDS011;36525;49.398;7.614;2023-05-19T03:42:05;10.20;;;2.15;;
50569;SDS011;36525;49.398;7.614;2023-05-19T03:44:32;6.95;;;1.75;;
50569;SDS011;36525;49.398;7.614;2023-05-19T03:46:59;9.02;;;1.77;;
50569;SDS011;36525;49.398;7.614;2023-05-19T03:49:26;7.13;;;1.70;;
50569;SDS011;36525;49.398;7.614;2023-05-19T03:51:53;6.20;;;1.80;;
50569;SDS011;36525;49.398;7.614;2023-05-19T03:54:20;8.05;;;1.85;;
50569;SDS011;36525;49.398;7.614;2023-05-19T03:56:47;6.95;;;1.77;;
50569;SDS011;36525;49.398;7.614;2023-05-19T03:59:15;9.35;;;1.95;;
50569;SDS011;36525;49.398;7.614;2023-05-19T04:01:42;6.25;;;2.10;;
50569;SDS011;36525;49.398;7.614;2023-05-19T04:04:09;10.45;;;2.13;;
50569;SDS011;36525;49.398;7.614;2023-05-19T04:06:38;7.45;;;2.30;;
50569;SDS011;36525;49.398;7.614;2023-05-19T04:09:10;10.48;;;2.40;;
50569;SDS011;36525;49.398;7.614;2023-05-19T04:11:39;7.78;;;2.13;;
50569;SDS011;36525;49.398;7.614;2023-05-19T04:14:07;8.02;;;1.90;;
50569;SDS011;36525;49.398;7.614;2023-05-19T04:16:35;7.70;;;1.73;;
50569;SDS011;36525;49.398;7.614;2023-05-19T04:19:02;4.88;;;2.08;;
50569;SDS011;36525;49.398;7.614;2023-05-19T04:21:29;7.05;;;1.98;;
50569;SDS011;36525;49.398;7.614;2023-05-19T04:23:56;5.18;;;1.63;;
50569;SDS011;36525;49.398;7.614;2023-05-19T04:26:25;7.07;;;2.10;;
50569;SDS011;36525;49.398;7.614;2023-05-19T04:28:56;6.53;;;1.80;;
50569;SDS011;36525;49.398;7.614;2023-05-19T04:31:23;4.78;;;1.77;;
50569;SDS011;36525;49.398;7.614;2023-05-19T04:33:50;6.25;;;1.83;;
50569;SDS011;36525;49.398;7.614;2023-05-19T04:36:18;6.68;;;1.73;;
50569;SDS011;36525;49.398;7.614;2023-05-19T04:38:46;6.93;;;2.10;;
50569;SDS011;36525;49.398;7.614;2023-05-19T04:41:14;7.90;;;2.17;;
50569;SDS011;36525;49.398;7.614;2023-05-19T04:43:41;7.25;;;1.92;;
50569;SDS011;36525;49.398;7.614;2023-05-19T04:46:10;6.15;;;1.80;;
50569;SDS011;36525;49.398;7.614;2023-05-19T04:48:39;7.57;;;1.90;;
50569;SDS011;36525;49.398;7.614;2023-05-19T04:51:06;6.03;;;2.00;;
50569;SDS011;36525;49.398;7.614;2023-05-19T04:53:33;6.47;;;1.65;;
50569;SDS011;36525;49.398;7.614;2023-05-19T04:56:01;7.53;;;2.25;;
50569;SDS011;36525;49.398;7.614;2023-05-19T04:58:29;9.60;;;1.92;;
50569;SDS011;36525;49.398;7.614;2023-05-19T05:00:56;8.98;;;2.22;;
50569;SDS011;36525;49.398;7.614;2023-05-19T05:03:25;6.28;;;1.60;;
50569;SDS011;36525;49.398;7.614;2023-05-19T05:05:52;7.70;;;2.10;;
50569;SDS011;36525;49.398;7.614;2023-05-19T05:08:19;7.13;;;2.15;;
50569;SDS011;36525;49.398;7.614;2023-05-19T05:10:49;7.88;;;1.70;;
50569;SDS011;36525;49.398;7.614;2023-05-19T05:13:19;4.85;;;1.77;;
50569;SDS011;36525;49.398;7.614;2023-05-19T05:15:48;5.80;;;1.77;;
50569;SDS011;36525;49.398;7.614;2023-05-19T05:18:19;7.78;;;2.00;;
50569;SDS011;36525;49.398;7.614;2023-05-19T05:20:46;5.80;;;1.70;;
50569;SDS011;36525;49.398;7.614;2023-05-19T05:23:14;7.85;;;1.70;;
50569;SDS011;36525;49.398;7.614;2023-05-19T05:25:42;6.90;;;2.10;;
50569;SDS011;36525;49.398;7.614;2023-05-19T05:28:10;7.28;;;1.50;;
50569;SDS011;36525;49.398;7.614;2023-05-19T05:30:37;7.22;;;1.83;;
50569;SDS011;36525;49.398;7.614;2023-05-19T05:33:04;7.80;;;1.80;;
50569;SDS011;36525;49.398;7.614;2023-05-19T05:35:31;7.28;;;1.85;;
50569;SDS011;36525;49.398;7.614;2023-05-19T05:37:59;9.20;;;1.90;;
50569;SDS011;36525;49.398;7.614;2023-05-19T05:40:27;5.85;;;1.70;;
50569;SDS011;36525;49.398;7.614;2023-05-19T05:42:55;6.38;;;1.55;;
50569;SDS011;36525;49.398;7.614;2023-05-19T05:45:22;7.78;;;1.52;;
50569;SDS011;36525;49.398;7.614;2023-05-19T05:47:49;5.07;;;1.40;;
50569;SDS011;36525;49.398;7.614;2023-05-19T05:50:17;7.68;;;1.30;;
50569;SDS011;36525;49.398;7.614;2023-05-19T05:52:45;9.05;;;1.60;;
50569;SDS011;36525;49.398;7.614;2023-05-19T05:55:13;6.78;;;1.88;;
50569;SDS011;36525;49.398;7.614;2023-05-19T05:57:42;7.00;;;1.48;;
50569;SDS011;36525;49.398;7.614;2023-05-19T06:00:10;7.03;;;1.48;;
50569;SDS011;36525;49.398;7.614;2023-05-19T06:02:44;6.30;;;1.52;;
50569;SDS011;36525;49.398;7.614;2023-05-19T06:05:16;6.10;;;1.60;;
50569;SDS011;36525;49.398;7.614;2023-05-19T06:07:43;7.68;;;1.63;;
50569;SDS011;36525;49.398;7.614;2023-05-19T06:10:10;7.20;;;1.50;;
50569;SDS011;36525;49.398;7.614;2023-05-19T06:12:37;5.35;;;1.55;;
50569;SDS011;36525;49.398;7.614;2023-05-19T06:15:06;8.10;;;1.83;;
50569;SDS011;36525;49.398;7.614;2023-05-19T06:17:33;6.43;;;1.30;;
50569;SDS011;36525;49.398;7.614;2023-05-19T06:20:01;8.40;;;1.50;;
50569;SDS011;36525;49.398;7.614;2023-05-19T06:22:31;5.63;;;1.40;;
50569;SDS011;36525;49.398;7.614;2023-05-19T06:24:58;5.45;;;1.20;;
50569;SDS011;36525;49.398;7.614;2023-05-19T06:27:25;7.35;;;1.48;;
50569;SDS011;36525;49.398;7.614;2023-05-19T06:29:52;9.77;;;1.48;;
50569;SDS011;36525;49.398;7.614;2023-05-19T06:32:19;6.05;;;1.58;;
50569;SDS011;36525;49.398;7.614;2023-05-19T06:34:47;9.48;;;1.88;;
50569;SDS011;36525;49.398;7.614;2023-05-19T06:37:22;8.98;;;1.90;;
50569;SDS011;36525;49.398;7.614;2023-05-19T06:39:52;5.45;;;1.30;;
50569;SDS011;36525;49.398;7.614;2023-05-19T06:42:20;7.07;;;1.60;;
50569;SDS011;36525;49.398;7.614;2023-05-19T06:44:51;5.78;;;1.17;;
50569;SDS011;36525;49.398;7.614;2023-05-19T06:47:18;6.80;;;1.77;;
50569;SDS011;36525;49.398;7.614;2023-05-19T06:49:46;6.57;;;1.45;;
50569;SDS011;36525;49.398;7.614;2023-05-19T06:52:17;7.30;;;1.73;;
50569;SDS011;36525;49.398;7.614;2023-05-19T06:54:44;7.20;;;1.80;;
50569;SDS011;36525;49.398;7.614;2023-05-19T06:57:11;8.57;;;1.92;;
50569;SDS011;36525;49.398;7.614;2023-05-19T06:59:38;5.55;;;1.30;;
50569;SDS011;36525;49.398;7.614;2023-05-19T07:02:07;5.65;;;1.45;;
50569;SDS011;36525;49.398;7.614;2023-05-19T07:04:35;11.90;;;1.98;;
50569;SDS011;36525;49.398;7.614;2023-05-19T07:07:02;7.15;;;1.35;;
50569;SDS011;36525;49.398;7.614;2023-05-19T07:09:32;8.52;;;1.73;;
50569;SDS011;36525;49.398;7.614;2023-05-19T07:12:01;11.25;;;1.83;;
50569;SDS011;36525;49.398;7.614;2023-05-19T07:14:28;10.65;;;1.30;;
50569;SDS011;36525;49.398;7.614;2023-05-19T07:16:55;11.70;;;1.92;;
50569;SDS011;36525;49.398;7.614;2023-05-19T07:19:22;11.77;;;2.25;;
50569;SDS011;36525;49.398;7.614;2023-05-19T07:21:49;7.60;;;1.55;;
50569;SDS011;36525;49.398;7.614;2023-05-19T07:24:17;9.32;;;1.70;;
50569;SDS011;36525;49.398;7.614;2023-05-19T07:26:46;6.35;;;1.50;;
50569;SDS011;36525;49.398;7.614;2023-05-19T07:29:13;5.63;;;1.20;;
50569;SDS011;36525;49.398;7.614;2023-05-19T07:31:41;5.15;;;1.27;;
50569;SDS011;36525;49.398;7.614;2023-05-19T07:34:08;7.78;;;1.63;;
50569;SDS011;36525;49.398;7.614;2023-05-19T07:36:35;8.32;;;1.50;;
50569;SDS011;36525;49.398;7.614;2023-05-19T07:39:02;8.25;;;1.48;;
50569;SDS011;36525;49.398;7.614;2023-05-19T07:41:29;5.68;;;1.40;;
50569;SDS011;36525;49.398;7.614;2023-05-19T07:43:59;5.18;;;1.42;;
50569;SDS011;36525;49.398;7.614;2023-05-19T07:46:26;11.73;;;1.88;;
50569;SDS011;36525;49.398;7.614;2023-05-19T07:48:54;5.75;;;1.40;;
50569;SDS011;36525;49.398;7.614;2023-05-19T07:51:21;7.07;;;1.42;;
50569;SDS011;36525;49.398;7.614;2023-05-19T07:53:49;8.85;;;2.05;;
50569;SDS011;36525;49.398;7.614;2023-05-19T07:56:16;6.03;;;1.80;;
50569;SDS011;36525;49.398;7.614;2023-05-19T07:58:43;5.28;;;1.30;;
50569;SDS011;36525;49.398;7.614;2023-05-19T08:01:11;6.30;;;1.65;;
50569;SDS011;36525;49.398;7.614;2023-05-19T08:03:38;11.45;;;2.40;;
50569;SDS011;36525;49.398;7.614;2023-05-19T08:06:05;7.57;;;1.58;;
50569;SDS011;36525;49.398;7.614;2023-05-19T08:08:32;7.68;;;1.73;;
50569;SDS011;36525;49.398;7.614;2023-05-19T08:11:01;5.35;;;1.20;;
50569;SDS011;36525;49.398;7.614;2023-05-19T08:13:32;9.32;;;1.73;;
50569;SDS011;36525;49.398;7.614;2023-05-19T08:16:00;7.75;;;1.90;;
50569;SDS011;36525;49.398;7.614;2023-05-19T08:18:27;4.95;;;1.60;;
50569;SDS011;36525;49.398;7.614;2023-05-19T08:20:54;7.30;;;1.70;;
50569;SDS011;36525;49.398;7.614;2023-05-19T08:23:22;4.20;;;1.63;;
50569;SDS011;36525;49.398;7.614;2023-05-19T08:25:49;9.98;;;1.90;;
50569;SDS011;36525;49.398;7.614;2023-05-19T08:28:16;10.02;;;2.03;;
50569;SDS011;36525;49.398;7.614;2023-05-19T08:30:44;7.22;;;1.55;;
50569;SDS011;36525;49.398;7.614;2023-05-19T08:33:11;6.55;;;1.52;;
50569;SDS011;36525;49.398;7.614;2023-05-19T08:35:38;7.78;;;1.90;;
50569;SDS011;36525;49.398;7.614;2023-05-19T08:38:05;8.70;;;1.70;;
50569;SDS011;36525;49.398;7.614;2023-05-19T08:40:32;6.82;;;1.48;;
50569;SDS011;36525;49.398;7.614;2023-05-19T08:43:03;6.07;;;1.85;;
50569;SDS011;36525;49.398;7.614;2023-05-19T08:45:30;7.38;;;1.88;;
50569;SDS011;36525;49.398;7.614;2023-05-19T08:48:00;6.88;;;1.70;;
50569;SDS011;36525;49.398;7.614;2023-05-19T08:50:29;5.40;;;1.70;;
50569;SDS011;36525;49.398;7.614;2023-05-19T08:53:18;6.68;;;2.13;;
50569;SDS011;36525;49.398;7.614;2023-05-19T08:59:05;10.20;;;2.13;;
50569;SDS011;36525;49.398;7.614;2023-05-19T09:01:33;6.82;;;2.15;;
50569;SDS011;36525;49.398;7.614;2023-05-19T09:04:00;6.90;;;1.75;;
50569;SDS011;36525;49.398;7.614;2023-05-19T09:06:30;7.35;;;1.67;;
50569;SDS011;36525;49.398;7.614;2023-05-19T09:08:58;9.32;;;1.65;;
50569;SDS011;36525;49.398;7.614;2023-05-19T09:11:25;10.60;;;2.90;;
50569;SDS011;36525;49.398;7.614;2023-05-19T09:13:52;5.45;;;1.27;;
50569;SDS011;36525;49.398;7.614;2023-05-19T09:16:19;10.75;;;2.35;;
50569;SDS011;36525;49.398;7.614;2023-05-19T09:18:53;6.18;;;1.88;;
50569;SDS011;36525;49.398;7.614;2023-05-19T09:21:26;8.05;;;1.70;;
50569;SDS011;36525;49.398;7.614;2023-05-19T09:23:57;7.03;;;1.50;;
50569;SDS011;36525;49.398;7.614;2023-05-19T09:29:14;9.35;;;2.22;;
50569;SDS011;36525;49.398;7.614;2023-05-19T09:31:49;7.70;;;1.95;;
50569;SDS011;36525;49.398;7.614;2023-05-19T09:34:19;6.55;;;1.80;;
50569;SDS011;36525;49.398;7.614;2023-05-19T09:36:49;5.40;;;1.67;;
50569;SDS011;36525;49.398;7.614;2023-05-19T09:39:19;6.60;;;1.55;;
50569;SDS011;36525;49.398;7.614;2023-05-19T09:41:52;5.97;;;1.63;;
50569;SDS011;36525;49.398;7.614;2023-05-19T09:44:26;7.13;;;2.05;;
50569;SDS011;36525;49.398;7.614;2023-05-19T09:46:56;11.88;;;1.92;;
50569;SDS011;36525;49.398;7.614;2023-05-19T09:49:27;7.43;;;2.28;;
50569;SDS011;36525;49.398;7.614;2023-05-19T09:51:57;7.45;;;1.70;;
50569;SDS011;36525;49.398;7.614;2023-05-19T09:54:32;6.00;;;1.60;;
50569;SDS011;36525;49.398;7.614;2023-05-19T09:57:00;7.70;;;1.60;;
50569;SDS011;36525;49.398;7.614;2023-05-19T09:59:33;6.05;;;1.75;;
50569;SDS011;36525;49.398;7.614;2023-05-19T10:02:03;6.15;;;1.55;;
50569;SDS011;36525;49.398;7.614;2023-05-19T10:04:36;6.25;;;1.63;;
50569;SDS011;36525;49.398;7.614;2023-05-19T10:07:04;3.50;;;1.20;;
50569;SDS011;36525;49.398;7.614;2023-05-19T10:09:32;6.43;;;1.30;;
50569;SDS011;36525;49.398;7.614;2023-05-19T10:12:01;5.07;;;1.70;;
50569;SDS011;36525;49.398;7.614;2023-05-19T10:14:32;5.10;;;1.63;;
50569;SDS011;36525;49.398;7.614;2023-05-19T10:16:59;5.07;;;1.27;;
50569;SDS011;36525;49.398;7.614;2023-05-19T10:19:27;6.90;;;1.20;;
50569;SDS011;36525;49.398;7.614;2023-05-19T10:21:55;6.63;;;1.50;;
50569;SDS011;36525;49.398;7.614;2023-05-19T10:24:25;6.85;;;1.17;;
50569;SDS011;36525;49.398;7.614;2023-05-19T10:29:27;5.35;;;1.27;;
50569;SDS011;36525;49.398;7.614;2023-05-19T10:31:59;9.48;;;1.50;;
50569;SDS011;36525;49.398;7.614;2023-05-19T10:34:48;7.68;;;1.33;;
50569;SDS011;36525;49.398;7.614;2023-05-19T10:37:43;6.50;;;1.38;;
50569;SDS011;36525;49.398;7.614;2023-05-19T10:41:01;5.13;;;1.50;;
50569;SDS011;36525;49.398;7.614;2023-05-19T10:44:17;6.90;;;1.48;;
50569;SDS011;36525;49.398;7.614;2023-05-19T10:46:49;6.63;;;1.52;;
50569;SDS011;36525;49.398;7.614;2023-05-19T10:49:21;4.95;;;1.30;;
50569;SDS011;36525;49.398;7.614;2023-05-19T10:51:50;5.03;;;1.23;;
50569;SDS011;36525;49.398;7.614;2023-05-19T10:54:37;4.65;;;1.02;;
50569;SDS011;36525;49.398;7.614;2023-05-19T10:57:15;4.45;;;1.27;;
50569;SDS011;36525;49.398;7.614;2023-05-19T10:59:42;3.85;;;1.27;;
50569;SDS011;36525;49.398;7.614;2023-05-19T11:02:35;5.80;;;1.42;;
50569;SDS011;36525;49.398;7.614;2023-05-19T11:05:12;7.13;;;1.30;;
50569;SDS011;36525;49.398;7.614;2023-05-19T11:07:55;3.72;;;1.20;;
50569;SDS011;36525;49.398;7.614;2023-05-19T11:10:31;4.72;;;1.20;;
50569;SDS011;36525;49.398;7.614;2023-05-19T11:13:01;9.90;;;1.17;;
50569;SDS011;36525;49.398;7.614;2023-05-19T11:15:35;4.30;;;1.40;;
50569;SDS011;36525;49.398;7.614;2023-05-19T11:18:04;8.25;;;1.10;;
50569;SDS011;36525;49.398;7.614;2023-05-19T11:20:31;6.20;;;1.20;;
50569;SDS011;36525;49.398;7.614;2023-05-19T11:28:15;4.28;;;1.13;;
50569;SDS011;36525;49.398;7.614;2023-05-19T11:30:46;3.50;;;1.00;;
50569;SDS011;36525;49.398;7.614;2023-05-19T11:33:20;6.80;;;1.33;;
50569;SDS011;36525;49.398;7.614;2023-05-19T11:35:53;3.88;;;1.05;;
50569;SDS011;36525;49.398;7.614;2023-05-19T11:40:55;7.05;;;1.25;;
50569;SDS011;36525;49.398;7.614;2023-05-19T11:43:23;5.47;;;1.40;;
50569;SDS011;36525;49.398;7.614;2023-05-19T11:45:54;5.43;;;1.35;;
50569;SDS011;36525;49.398;7.614;2023-05-19T11:48:22;8.48;;;1.60;;
50569;SDS011;36525;49.398;7.614;2023-05-19T11:50:51;5.22;;;1.27;;
50569;SDS011;36525;49.398;7.614;2023-05-19T11:53:18;4.57;;;1.13;;
50569;SDS011;36525;49.398;7.614;2023-05-19T11:55:46;5.60;;;1.40;;
50569;SDS011;36525;49.398;7.614;2023-05-19T11:58:15;3.60;;;1.15;;
50569;SDS011;36525;49.398;7.614;2023-05-19T12:00:43;6.22;;;1.35;;
50569;SDS011;36525;49.398;7.614;2023-05-19T12:03:13;6.07;;;1.50;;
50569;SDS011;36525;49.398;7.614;2023-05-19T12:05:43;9.27;;;1.30;;
50569;SDS011;36525;49.398;7.614;2023-05-19T12:08:13;5.90;;;1.30;;
50569;SDS011;36525;49.398;7.614;2023-05-19T12:10:42;9.50;;;1.10;;
50569;SDS011;36525;49.398;7.614;2023-05-19T12:13:13;7.05;;;1.50;;
50569;SDS011;36525;49.398;7.614;2023-05-19T12:15:41;7.03;;;1.13;;
50569;SDS011;36525;49.398;7.614;2023-05-19T12:18:08;4.68;;;1.45;;
50569;SDS011;36525;49.398;7.614;2023-05-19T12:20:36;4.53;;;1.10;;
50569;SDS011;36525;49.398;7.614;2023-05-19T12:23:04;4.15;;;1.30;;
50569;SDS011;36525;49.398;7.614;2023-05-19T12:25:31;4.25;;;1.13;;
50569;SDS011;36525;49.398;7.614;2023-05-19T12:28:00;4.75;;;1.10;;
50569;SDS011;36525;49.398;7.614;2023-05-19T12:30:29;6.97;;;1.30;;
50569;SDS011;36525;49.398;7.614;2023-05-19T12:32:58;6.45;;;1.40;;
50569;SDS011;36525;49.398;7.614;2023-05-19T12:35:28;5.60;;;1.48;;
50569;SDS011;36525;49.398;7.614;2023-05-19T12:38:03;4.88;;;1.23;;
50569;SDS011;36525;49.398;7.614;2023-05-19T12:40:32;4.78;;;1.20;;
50569;SDS011;36525;49.398;7.614;2023-05-19T12:43:07;5.28;;;1.35;;
50569;SDS011;36525;49.398;7.614;2023-05-19T12:45:35;4.35;;;1.15;;
50569;SDS011;36525;49.398;7.614;2023-05-19T12:48:09;5.70;;;1.10;;
50569;SDS011;36525;49.398;7.614;2023-05-19T12:50:37;6.25;;;1.27;;
50569;SDS011;36525;49.398;7.614;2023-05-19T12:53:09;5.30;;;1.27;;
50569;SDS011;36525;49.398;7.614;2023-05-19T12:55:38;6.00;;;1.13;;
50569;SDS011;36525;49.398;7.614;2023-05-19T12:58:11;5.07;;;1.30;;
50569;SDS011;36525;49.398;7.614;2023-05-19T13:00:39;5.93;;;1.20;;
50569;SDS011;36525;49.398;7.614;2023-05-19T13:03:18;4.22;;;1.13;;
50569;SDS011;36525;49.398;7.614;2023-05-19T13:05:47;3.40;;;1.10;;
50569;SDS011;36525;49.398;7.614;2023-05-19T13:08:16;8.98;;;1.17;;
50569;SDS011;36525;49.398;7.614;2023-05-19T13:10:46;3.97;;;1.50;;
50569;SDS011;36525;49.398;7.614;2023-05-19T13:13:15;4.13;;;1.17;;
50569;SDS011;36525;49.398;7.614;2023-05-19T13:15:43;3.17;;;1.05;;
50569;SDS011;36525;49.398;7.614;2023-05-19T13:18:14;6.40;;;1.40;;
50569;SDS011;36525;49.398;7.614;2023-05-19T13:20:43;3.75;;;1.27;;
50569;SDS011;36525;49.398;7.614;2023-05-19T13:23:12;4.80;;;1.42;;
50569;SDS011;36525;49.398;7.614;2023-05-19T13:25:41;5.55;;;1.30;;
50569;SDS011;36525;49.398;7.614;2023-05-19T13:28:09;4.38;;;1.10;;
50569;SDS011;36525;49.398;7.614;2023-05-19T13:30:38;4.50;;;1.10;;
50569;SDS011;36525;49.398;7.614;2023-05-19T13:33:07;4.40;;;1.25;;
50569;SDS011;36525;49.398;7.614;2023-05-19T13:35:34;4.47;;;1.23;;
50569;SDS011;36525;49.398;7.614;2023-05-19T13:38:05;4.40;;;1.10;;
50569;SDS011;36525;49.398;7.614;2023-05-19T13:40:35;3.60;;;1.20;;
50569;SDS011;36525;49.398;7.614;2023-05-19T13:43:03;4.38;;;1.65;;
50569;SDS011;36525;49.398;7.614;2023-05-19T13:45:31;4.68;;;1.15;;
50569;SDS011;36525;49.398;7.614;2023-05-19T13:47:58;2.38;;;0.82;;
50569;SDS011;36525;49.398;7.614;2023-05-19T13:50:25;6.82;;;1.42;;
50569;SDS011;36525;49.398;7.614;2023-05-19T13:52:53;4.90;;;1.20;;
50569;SDS011;36525;49.398;7.614;2023-05-19T13:55:20;4.57;;;1.15;;
50569;SDS011;36525;49.398;7.614;2023-05-19T13:57:48;4.28;;;1.42;;
50569;SDS011;36525;49.398;7.614;2023-05-19T14:00:16;6.50;;;1.13;;
50569;SDS011;36525;49.398;7.614;2023-05-19T14:02:44;3.95;;;1.00;;
50569;SDS011;36525;49.398;7.614;2023-05-19T14:05:12;3.08;;;1.02;;
50569;SDS011;36525;49.398;7.614;2023-05-19T14:07:39;3.58;;;1.10;;
50569;SDS011;36525;49.398;7.614;2023-05-19T14:10:08;6.18;;;1.80;;
50569;SDS011;36525;49.398;7.614;2023-05-19T14:12:35;4.10;;;0.80;;
50569;SDS011;36525;49.398;7.614;2023-05-19T14:15:23;6.95;;;1.00;;
50569;SDS011;36525;49.398;7.614;2023-05-19T14:17:50;5.00;;;1.23;;
50569;SDS011;36525;49.398;7.614;2023-05-19T14:20:18;5.50;;;1.25;;
50569;SDS011;36525;49.398;7.614;2023-05-19T14:22:45;6.30;;;1.00;;
50569;SDS011;36525;49.398;7.614;2023-05-19T14:25:13;3.35;;;1.20;;
50569;SDS011;36525;49.398;7.614;2023-05-19T14:27:40;4.88;;;1.00;;
50569;SDS011;36525;49.398;7.614;2023-05-19T14:30:07;4.55;;;1.15;;
50569;SDS011;36525;49.398;7.614;2023-05-19T14:32:35;6.00;;;1.30;;
50569;SDS011;36525;49.398;7.614;2023-05-19T14:35:02;3.78;;;1.10;;
50569;SDS011;36525;49.398;7.614;2023-05-19T14:37:30;3.30;;;1.17;;
50569;SDS011;36525;49.398;7.614;2023-05-19T14:39:58;8.55;;;1.65;;
50569;SDS011;36525;49.398;7.614;2023-05-19T14:42:26;5.07;;;1.35;;
50569;SDS011;36525;49.398;7.614;2023-05-19T14:44:53;5.20;;;1.17;;
50569;SDS011;36525;49.398;7.614;2023-05-19T14:47:20;5.47;;;1.50;;
50569;SDS011;36525;49.398;7.614;2023-05-19T14:49:47;3.22;;;0.98;;
50569;SDS011;36525;49.398;7.614;2023-05-19T14:52:14;5.10;;;1.08;;
50569;SDS011;36525;49.398;7.614;2023-05-19T14:54:43;4.35;;;0.90;;
50569;SDS011;36525;49.398;7.614;2023-05-19T14:57:10;2.85;;;1.05;;
50569;SDS011;36525;49.398;7.614;2023-05-19T14:59:37;5.78;;;1.20;;
50569;SDS011;36525;49.398;7.614;2023-05-19T15:02:05;4.47;;;1.08;;
50569;SDS011;36525;49.398;7.614;2023-05-19T15:04:34;5.82;;;1.10;;
50569;SDS011;36525;49.398;7.614;2023-05-19T15:07:01;3.53;;;0.88;;
50569;SDS011;36525;49.398;7.614;2023-05-19T15:09:31;9.20;;;1.30;;
50569;SDS011;36525;49.398;7.614;2023-05-19T15:11:58;3.10;;;1.20;;
50569;SDS011;36525;49.398;7.614;2023-05-19T15:14:28;3.50;;;1.02;;
50569;SDS011;36525;49.398;7.614;2023-05-19T15:16:56;7.78;;;1.10;;
50569;SDS011;36525;49.398;7.614;2023-05-19T15:19:24;4.75;;;1.30;;
50569;SDS011;36525;49.398;7.614;2023-05-19T15:21:52;3.53;;;0.85;;
50569;SDS011;36525;49.398;7.614;2023-05-19T15:24:20;3.47;;;0.95;;
50569;SDS011;36525;49.398;7.614;2023-05-19T15:26:47;6.15;;;1.15;;
50569;SDS011;36525;49.398;7.614;2023-05-19T15:29:15;6.13;;;0.93;;
50569;SDS011;36525;49.398;7.614;2023-05-19T15:31:42;5.03;;;1.00;;